createdAt,value
2022-12-23T00:01:40.908Z,98984.88
2022-12-23T00:04:11.443Z,98981.84
2022-12-23T00:06:41.887Z,98983.58
2022-12-23T00:09:12.207Z,98990.62
2022-12-23T00:11:44.069Z,98991.08
2022-12-23T00:14:21.915Z,98995.90
2022-12-23T00:16:51.684Z,98993.73
2022-12-23T00:19:22.129Z,98986.70
2022-12-23T00:21:52.400Z,98991.53
2022-12-23T00:24:22.669Z,98991.06
2022-12-23T00:26:52.963Z,98997.19
2022-12-23T00:29:23.340Z,98995.90
2022-12-23T00:31:53.618Z,98998.08
2022-12-23T00:34:24.054Z,99000.69
2022-12-23T00:36:54.666Z,99005.95
2022-12-23T00:39:42.579Z,99005.51
2022-12-23T00:42:23.285Z,99011.21
2022-12-23T00:44:53.649Z,99006.80
2022-12-23T00:47:41.888Z,98999.77
2022-12-23T00:50:12.860Z,99003.71
2022-12-23T00:52:43.045Z,99010.31
2022-12-23T00:55:13.365Z,99009.92
2022-12-23T00:57:43.666Z,99014.28
2022-12-23T01:00:15.039Z,99019.16
2022-12-23T01:03:03.675Z,99020.92
2022-12-23T01:05:37.293Z,99018.22
2022-12-23T01:08:10.422Z,99018.68
2022-12-23T01:10:42.089Z,99010.37
2022-12-23T01:13:12.300Z,99028.38
2022-12-23T01:15:42.620Z,99024.87
2022-12-23T01:18:12.914Z,99031.02
2022-12-23T01:20:43.231Z,99032.35
2022-12-23T01:23:13.531Z,99037.22
2022-12-23T01:25:43.896Z,99035.89
2022-12-23T01:28:14.102Z,99039.85
2022-12-23T01:30:46.026Z,99034.14
2022-12-23T01:33:16.262Z,99035.47
2022-12-23T01:35:46.565Z,99040.73
2022-12-23T01:38:16.844Z,99039.02
2022-12-23T01:40:47.309Z,99039.48
2022-12-23T01:43:19.658Z,99042.97
2022-12-23T01:45:50.387Z,99036.78
2022-12-23T01:48:28.686Z,99030.61
2022-12-23T01:51:04.886Z,99032.33
2022-12-23T01:53:47.127Z,99031.86
2022-12-23T01:56:20.383Z,99034.48
2022-12-23T01:58:53.537Z,99028.76
2022-12-23T02:01:28.658Z,99041.06
2022-12-23T02:04:02.271Z,99045.43
2022-12-23T02:06:56.118Z,99033.20
2022-12-23T02:09:34.661Z,99041.94
2022-12-23T02:12:17.149Z,99049.00
2022-12-23T02:15:37.072Z,99052.97
2022-12-23T02:18:22.842Z,99056.05
2022-12-23T02:21:16.068Z,99063.98
2022-12-23T02:23:49.252Z,99056.55
2022-12-23T02:26:41.813Z,99049.53
2022-12-23T02:29:20.822Z,99056.53
2022-12-23T02:32:03.335Z,99063.10
2022-12-23T02:34:57.422Z,99065.75
2022-12-23T02:40:46.177Z,99068.77
2022-12-23T02:43:28.361Z,99070.17
2022-12-23T02:46:10.380Z,99073.27
2022-12-23T02:49:08.308Z,99071.51
2022-12-23T02:51:44.271Z,99080.33
2022-12-23T02:54:17.527Z,99079.02
2022-12-23T02:56:51.210Z,99083.84
2022-12-23T02:59:27.228Z,99086.92
2022-12-23T03:02:00.358Z,99086.92
2022-12-23T03:04:30.677Z,99089.09
2022-12-23T03:07:07.213Z,99086.01
2022-12-23T03:09:38.794Z,99087.77
2022-12-23T03:12:11.989Z,99089.02
2022-12-23T03:15:14.167Z,99086.77
2022-12-23T03:17:53.235Z,99088.50
2022-12-23T03:20:29.401Z,99085.00
2022-12-23T03:23:05.251Z,99081.45
2022-12-23T03:25:41.124Z,99086.73
2022-12-23T03:28:29.408Z,99090.28
2022-12-23T03:31:02.588Z,99081.94
2022-12-23T03:33:38.899Z,99083.27
2022-12-23T03:36:12.127Z,99092.95
2022-12-23T03:38:45.100Z,99093.82
2022-12-23T03:41:18.233Z,99095.15
2022-12-23T03:43:51.489Z,99095.59
2022-12-23T03:46:27.269Z,99094.29
2022-12-23T03:49:03.075Z,99099.57
2022-12-23T03:51:36.237Z,99106.16
2022-12-23T03:54:09.503Z,99103.52
2022-12-23T03:56:48.813Z,99102.19
2022-12-23T03:59:24.630Z,99093.81
2022-12-23T04:02:09.901Z,99101.27
2022-12-23T04:05:13.759Z,99098.64
2022-12-23T04:07:56.093Z,99093.37
2022-12-23T04:10:27.047Z,99098.25
2022-12-23T04:12:57.346Z,99100.90
2022-12-23T04:15:28.903Z,99100.89
2022-12-23T04:17:59.675Z,99100.89
2022-12-23T04:20:29.974Z,99102.20
2022-12-23T04:23:00.489Z,99103.49
2022-12-23T04:25:30.861Z,99096.91
2022-12-23T04:28:01.061Z,99105.67
2022-12-23T04:30:34.435Z,99108.30
2022-12-23T04:33:03.848Z,99108.28
2022-12-23T04:35:34.231Z,99110.05
2022-12-23T04:38:04.681Z,99114.85
2022-12-23T04:40:35.270Z,99116.58
2022-12-23T04:43:05.571Z,99113.08
2022-12-23T04:45:35.997Z,99113.95
2022-12-23T04:48:06.618Z,99109.59
2022-12-23T04:50:37.347Z,99116.63
2022-12-23T04:53:07.782Z,99112.67
2022-12-23T04:55:38.079Z,99113.10
2022-12-23T04:58:08.320Z,99106.53
2022-12-23T05:00:39.990Z,99113.12
2022-12-23T05:03:10.715Z,99116.63
2022-12-23T05:05:47.341Z,99119.31
2022-12-23T05:08:16.925Z,99117.09
2022-12-23T05:10:47.383Z,99118.88
2022-12-23T05:13:17.653Z,99126.38
2022-12-23T05:15:50.248Z,99129.44
2022-12-23T05:18:21.892Z,99129.02
2022-12-23T05:20:52.108Z,99130.28
2022-12-23T05:23:22.314Z,99134.22
2022-12-23T05:25:56.154Z,99134.22
2022-12-23T05:28:26.554Z,99131.13
2022-12-23T05:31:05.092Z,99132.47
2022-12-23T05:33:36.432Z,99131.56
2022-12-23T05:36:07.521Z,99132.87
2022-12-23T05:38:38.001Z,99131.14
2022-12-23T05:41:08.767Z,99145.63
2022-12-23T05:43:39.006Z,99141.67
2022-12-23T05:46:09.394Z,99141.67
2022-12-23T05:48:39.702Z,99142.55
2022-12-23T05:51:09.946Z,99148.28
2022-12-23T05:53:40.141Z,99149.59
2022-12-23T05:56:10.541Z,99159.29
2022-12-23T05:58:40.801Z,99149.16
2022-12-23T06:01:11.421Z,99146.49
2022-12-23T06:03:41.827Z,99152.66
2022-12-23T06:06:12.157Z,99153.96
2022-12-23T06:08:42.417Z,99157.93
2022-12-23T06:11:13.296Z,99153.11
2022-12-23T06:13:43.633Z,99152.22
2022-12-23T06:16:13.939Z,99146.53
2022-12-23T06:18:44.226Z,99161.91
2022-12-23T06:21:14.603Z,99165.00
2022-12-23T06:23:44.870Z,99166.33
2022-12-23T06:26:15.360Z,99173.39
2022-12-23T06:28:45.732Z,99179.53
2022-12-23T06:31:16.143Z,99183.53
2022-12-23T06:33:46.599Z,99183.95
2022-12-23T06:36:16.986Z,99179.58
2022-12-23T06:38:47.454Z,99175.63
2022-12-23T06:41:18.125Z,99184.85
2022-12-23T06:43:53.962Z,99183.53
2022-12-23T06:46:20.467Z,99191.39
2022-12-23T06:48:50.904Z,99191.38
2022-12-23T06:51:21.628Z,99188.72
2022-12-23T06:53:52.258Z,99190.02
2022-12-23T06:56:22.451Z,99198.38
2022-12-23T06:58:52.818Z,99192.19
2022-12-23T07:01:23.391Z,99195.70
2022-12-23T07:03:53.770Z,99193.06
2022-12-23T07:06:24.124Z,99200.10
2022-12-23T07:08:54.634Z,99199.23
2022-12-23T07:11:24.979Z,99193.97
2022-12-23T07:13:55.285Z,99204.98
2022-12-23T07:16:25.584Z,99197.91
2022-12-23T07:18:55.835Z,99206.73
2022-12-23T07:21:29.507Z,99211.14
2022-12-23T07:23:58.191Z,99210.23
2022-12-23T07:26:28.426Z,99212.44
2022-12-23T07:28:58.783Z,99208.92
2022-12-23T07:31:29.103Z,99212.84
2022-12-23T07:33:59.631Z,99215.91
2022-12-23T07:36:29.816Z,99204.91
2022-12-23T07:39:00.112Z,99211.51
2022-12-23T07:41:30.533Z,99204.46
2022-12-23T07:44:00.834Z,99197.02
2022-12-23T07:46:31.306Z,99199.65
2022-12-23T07:49:01.809Z,99188.25
2022-12-23T07:51:32.682Z,99187.38
2022-12-23T07:54:02.949Z,99195.75
2022-12-23T07:56:33.251Z,99197.48
2022-12-23T07:59:03.515Z,99203.20
2022-12-23T08:01:34.016Z,99216.37
2022-12-23T08:04:04.338Z,99219.01
2022-12-23T08:06:36.731Z,99227.33
2022-12-23T08:09:08.619Z,99229.05
2022-12-23T08:11:39.101Z,99219.35
2022-12-23T08:14:09.440Z,99218.00
2022-12-23T08:16:43.909Z,99222.83
2022-12-23T08:19:11.835Z,99218.86
2022-12-23T08:21:42.337Z,99220.18
2022-12-23T08:24:12.641Z,99213.14
2022-12-23T08:26:42.999Z,99214.47
2022-12-23T08:29:13.264Z,99211.42
2022-12-23T08:31:43.534Z,99206.14
2022-12-23T08:34:17.348Z,99211.42
2022-12-23T08:36:47.647Z,99203.51
2022-12-23T08:39:18.423Z,99206.14
2022-12-23T08:41:49.833Z,99202.19
2022-12-23T08:44:20.406Z,99198.64
2022-12-23T08:46:50.869Z,99194.69
2022-12-23T08:49:21.566Z,99198.22
2022-12-23T08:51:52.317Z,99198.17
2022-12-23T08:54:23.888Z,99197.28
2022-12-23T08:56:54.189Z,99194.61
2022-12-23T08:59:24.427Z,99187.14
2022-12-23T09:01:54.908Z,99184.51
2022-12-23T09:04:25.393Z,99181.88
2022-12-23T09:06:55.673Z,99176.14
2022-12-23T09:09:26.049Z,99169.55
2022-12-23T09:11:56.331Z,99167.81
2022-12-23T09:14:26.583Z,99169.59
2022-12-23T09:16:57.043Z,99171.77
2022-12-23T09:19:27.315Z,99171.32
2022-12-23T09:21:57.846Z,99165.59
2022-12-23T09:24:28.092Z,99155.03
2022-12-23T09:26:58.349Z,99159.42
2022-12-23T09:29:28.619Z,99158.56
2022-12-23T09:31:58.970Z,99154.15
2022-12-23T09:34:29.468Z,99146.23
2022-12-23T09:36:59.869Z,99142.67
2022-12-23T09:39:30.148Z,99133.44
2022-12-23T09:42:21.466Z,99137.86
2022-12-23T09:45:15.845Z,99131.27
2022-12-23T09:47:46.883Z,99134.83
2022-12-23T09:50:31.050Z,99119.94
2022-12-23T09:53:10.050Z,99128.31
2022-12-23T09:55:49.358Z,99123.91
2022-12-23T09:58:31.891Z,99122.61
2022-12-23T10:01:13.773Z,99114.30
2022-12-23T10:03:58.939Z,99120.03
2022-12-23T10:06:31.539Z,99112.59
2022-12-23T10:09:08.107Z,99110.83
2022-12-23T10:11:39.087Z,99111.73
2022-12-23T10:14:23.810Z,99113.45
2022-12-23T10:16:57.003Z,99110.37
2022-12-23T10:19:33.028Z,99106.84
2022-12-23T10:22:09.409Z,99104.20
2022-12-23T10:24:50.291Z,99103.73
2022-12-23T10:27:32.487Z,99104.60
2022-12-23T10:30:42.501Z,99103.27
2022-12-23T10:33:01.843Z,99097.98
2022-12-23T10:35:56.416Z,99094.87
2022-12-23T10:38:50.266Z,99095.27
2022-12-23T10:41:28.922Z,99090.84
2022-12-23T10:44:05.155Z,99086.91
2022-12-23T10:46:56.451Z,99087.77
2022-12-23T10:49:29.783Z,99079.46
2022-12-23T10:52:06.069Z,99086.50
2022-12-23T10:54:38.480Z,99086.92
2022-12-23T10:57:09.490Z,99093.97
2022-12-23T10:59:39.820Z,99079.94
2022-12-23T11:02:34.381Z,99080.86
2022-12-23T11:05:04.996Z,99072.55
2022-12-23T11:07:45.197Z,99068.63
2022-12-23T11:10:11.042Z,99067.33
2022-12-23T11:12:49.904Z,99060.34
2022-12-23T11:15:41.396Z,99055.52
2022-12-23T11:18:17.636Z,99046.75
2022-12-23T11:21:06.130Z,99043.66
2022-12-23T11:23:37.527Z,99034.89
2022-12-23T11:26:11.188Z,99032.73
2022-12-23T11:28:44.385Z,99020.01
2022-12-23T11:31:17.063Z,99029.69
2022-12-23T11:34:02.854Z,99018.75
2022-12-23T11:36:35.265Z,99021.38
2022-12-23T11:39:16.755Z,99022.73
2022-12-23T11:41:49.110Z,99020.10
2022-12-23T11:44:36.828Z,99026.70
2022-12-23T11:47:31.286Z,99024.07
2022-12-23T11:50:03.767Z,99013.52
2022-12-23T11:52:35.327Z,99021.02
2022-12-23T11:55:08.205Z,99017.53
2022-12-23T11:57:43.980Z,99015.78
2022-12-23T12:00:22.998Z,99015.35
2022-12-23T12:02:56.491Z,99004.34
2022-12-23T12:05:35.599Z,98999.08
2022-12-23T12:08:14.745Z,99001.72
2022-12-23T12:10:45.331Z,98994.69
2022-12-23T12:13:21.623Z,98995.99
2022-12-23T12:16:14.928Z,98992.95
2022-12-23T12:18:53.702Z,98990.73
2022-12-23T12:21:22.430Z,98981.98
2022-12-23T12:24:17.656Z,98980.66
2022-12-23T12:26:38.270Z,98983.75
2022-12-23T12:29:30.855Z,98979.35
2022-12-23T12:32:02.567Z,98981.98
2022-12-23T12:34:41.488Z,98978.08
2022-12-23T12:37:32.871Z,98976.77
2022-12-23T12:40:06.000Z,98989.94
2022-12-23T12:42:45.168Z,98989.09
2022-12-23T12:45:18.392Z,98989.52
2022-12-23T12:48:26.771Z,98983.39
2022-12-23T12:51:19.379Z,98989.56
2022-12-23T12:54:04.692Z,98982.53
2022-12-23T12:56:49.015Z,98986.93
2022-12-23T12:59:22.524Z,98982.93
2022-12-23T13:02:10.813Z,98977.23
2022-12-23T13:05:07.946Z,98977.65
2022-12-23T13:07:53.258Z,98980.73
2022-12-23T13:10:44.594Z,98983.36
2022-12-23T13:13:45.084Z,98991.72
2022-12-23T13:16:35.845Z,98982.50
2022-12-23T13:19:09.066Z,98982.52
2022-12-23T13:21:54.097Z,98993.52
2022-12-23T13:24:46.897Z,98982.98
2022-12-23T13:27:22.798Z,98984.30
2022-12-23T13:30:15.238Z,98983.84
2022-12-23T13:33:05.423Z,98987.80
2022-12-23T13:35:41.514Z,98983.40
2022-12-23T13:38:26.755Z,98984.30
2022-12-23T13:41:25.720Z,98976.81
2022-12-23T13:44:01.724Z,98972.82
2022-12-23T13:46:46.728Z,98979.31
2022-12-23T13:49:36.657Z,98976.59
2022-12-23T13:52:12.907Z,98977.80
2022-12-23T13:55:03.292Z,98978.59
2022-12-23T13:57:45.149Z,98976.77
2022-12-23T14:00:21.097Z,98972.80
2022-12-23T14:03:03.052Z,98972.80
2022-12-23T14:05:37.313Z,98975.85
2022-12-23T14:08:22.242Z,98972.34
2022-12-23T14:11:07.315Z,98971.42
2022-12-23T14:13:52.247Z,98963.52
2022-12-23T14:16:48.467Z,98956.05
2022-12-23T14:19:21.673Z,98968.33
2022-12-23T14:22:30.937Z,98970.09
2022-12-23T14:25:37.595Z,98968.77
2022-12-23T14:28:10.759Z,98967.83
2022-12-23T14:30:46.205Z,98970.45
2022-12-23T14:33:28.380Z,98967.81
2022-12-23T14:36:17.886Z,98974.41
2022-12-23T14:39:07.836Z,98978.82
2022-12-23T14:41:40.509Z,98985.89
2022-12-23T14:44:20.701Z,98984.98
2022-12-23T14:46:53.787Z,98982.80
2022-12-23T14:49:39.015Z,98983.69
2022-12-23T14:52:02.190Z,98987.69
2022-12-23T14:54:50.172Z,98992.51
2022-12-23T14:57:17.781Z,98995.61
2022-12-23T14:59:51.435Z,98989.95
2022-12-23T15:02:27.887Z,98991.67
2022-12-23T15:05:00.079Z,98998.28
2022-12-23T15:07:39.357Z,98994.34
2022-12-23T15:10:18.787Z,98990.84
2022-12-23T15:12:54.370Z,99003.57
2022-12-23T15:15:27.009Z,99003.14
2022-12-23T15:18:09.075Z,99009.74
2022-12-23T15:20:41.138Z,99002.31
2022-12-23T15:23:14.483Z,99003.63
2022-12-23T15:25:50.278Z,99000.59
2022-12-23T15:28:23.662Z,99004.11
2022-12-23T15:30:57.308Z,99002.78
2022-12-23T15:36:07.223Z,99008.42
2022-12-23T15:38:39.825Z,99013.62
2022-12-23T15:41:19.830Z,99009.17
2022-12-23T15:43:50.595Z,99006.91
2022-12-23T15:46:30.161Z,99002.87
2022-12-23T15:48:56.851Z,98996.25
2022-12-23T15:52:05.900Z,99000.11
2022-12-23T15:54:11.135Z,98993.53
2022-12-23T15:56:43.950Z,98995.70
2022-12-23T15:59:17.122Z,98999.64
2022-12-23T16:01:47.460Z,98997.02
2022-12-23T16:04:29.722Z,98994.36
2022-12-23T16:07:00.788Z,98998.32
2022-12-23T16:09:36.789Z,98997.00
2022-12-23T16:12:25.385Z,99002.72
2022-12-23T16:15:00.156Z,98998.30
2022-12-23T16:17:33.173Z,99002.70
2022-12-23T16:20:18.627Z,99000.50
2022-12-23T16:22:51.188Z,98996.17
2022-12-23T16:25:27.658Z,99002.30
2022-12-23T16:28:01.776Z,99003.11
2022-12-23T16:30:42.769Z,98993.78
2022-12-23T16:33:25.080Z,99003.45
2022-12-23T16:35:56.607Z,98995.92
2022-12-23T16:38:27.936Z,98994.61
2022-12-23T16:40:58.883Z,98996.31
2022-12-23T16:43:29.222Z,99001.58
2022-12-23T16:45:59.803Z,98998.48
2022-12-23T16:48:35.980Z,99004.16
2022-12-23T16:51:19.350Z,99006.75
2022-12-23T16:53:51.885Z,99006.33
2022-12-23T16:56:24.072Z,99018.59
2022-12-23T16:58:54.364Z,99015.09
2022-12-23T17:01:27.668Z,99012.44
2022-12-23T17:03:58.467Z,99010.64
2022-12-23T17:06:29.130Z,99012.38
2022-12-23T17:08:59.425Z,99014.98
2022-12-23T17:11:50.573Z,99021.13
2022-12-23T17:14:26.481Z,99018.09
2022-12-23T17:16:58.053Z,99021.98
2022-12-23T17:19:29.462Z,99015.84
2022-12-23T17:22:02.670Z,99025.06
2022-12-23T17:24:32.917Z,99022.42
2022-12-23T17:27:03.177Z,99027.68
2022-12-23T17:29:33.500Z,99031.64
2022-12-23T17:32:03.833Z,99026.77
2022-12-23T17:34:34.112Z,99027.23
2022-12-23T17:37:05.985Z,99022.35
2022-12-23T17:39:36.361Z,99029.39
2022-12-23T17:42:07.060Z,99021.02
2022-12-23T17:44:37.262Z,99021.88
2022-12-23T17:47:13.190Z,99023.18
2022-12-23T17:49:44.228Z,99026.70
2022-12-23T17:52:16.867Z,99021.42
2022-12-23T17:54:48.497Z,99030.18
2022-12-23T17:57:24.753Z,99033.28
2022-12-23T17:59:56.957Z,99036.77
2022-12-23T18:02:33.210Z,99037.68
2022-12-23T18:05:05.639Z,99041.16
2022-12-23T18:07:35.964Z,99042.02
2022-12-23T18:10:06.530Z,99045.97
2022-12-23T18:12:39.216Z,99047.27
2022-12-23T18:15:12.524Z,99053.88
2022-12-23T18:17:42.778Z,99054.28
2022-12-23T18:20:21.763Z,99061.73
2022-12-23T18:22:54.525Z,99064.81
2022-12-23T18:25:26.824Z,99063.89
2022-12-23T18:27:57.124Z,99069.63
2022-12-23T18:30:27.468Z,99073.58
2022-12-23T18:32:57.734Z,99070.94
2022-12-23T18:35:33.853Z,99074.88
2022-12-23T18:38:04.164Z,99082.75
2022-12-23T18:40:34.402Z,99083.66
2022-12-23T18:43:04.815Z,99082.33
2022-12-23T18:45:41.814Z,99079.69
2022-12-23T18:48:12.464Z,99090.20
2022-12-23T18:50:43.767Z,99091.11
2022-12-23T18:53:25.540Z,99088.47
2022-12-23T18:55:56.743Z,99093.28
2022-12-23T18:58:27.120Z,99100.75
2022-12-23T19:00:57.539Z,99100.71
2022-12-23T19:03:30.618Z,99105.08
2022-12-23T19:06:05.536Z,99112.98
2022-12-23T19:08:37.217Z,99112.58
2022-12-23T19:11:16.102Z,99107.72
2022-12-23T19:13:47.108Z,99110.36
2022-12-23T19:16:20.462Z,99120.91
2022-12-23T19:18:51.739Z,99120.45
2022-12-23T19:21:23.028Z,99122.23
2022-12-23T19:23:53.316Z,99116.56
